Falmouth, Virginia
Current Conditions -  °F | °C
As of 1:00 PM on Monday 24 Nov 2014 (Local Time) from KEZF Reporting Station
Scattered Clouds Scattered Clouds  
Wind Chill: 73°   Ceiling: Unl
Heat Index: 73°   Visibility: 10mi
Dew Point: 54°   Wind: 15mph
Humidity: 52%   Direction: 220°SW
Pressure: 29.64"   Gusts: 32mph
Location:  38.3059°N, 77.3439°W
Report Text: KEZF 241800Z AUTO 22013G28KT 10SM SCT043 23/12 A2964 RMK AO2 T02270124
Loading
Personal Weather Stations






























Interactive Weather Map New forecast layout! Learn more

10-Day Weather Forecast

Advertisements
Track Severe Weather on mobile